createdAt,value
2023-05-03T19:19:05.471Z,13.52
2023-05-03T19:21:41.542Z,12.32
2023-05-03T19:24:14.150Z,10.02
2023-05-03T19:26:43.713Z,9.18
2023-05-03T19:29:13.139Z,8.80
2023-05-03T19:31:48.841Z,7.07
2023-05-03T19:34:21.638Z,7.25
2023-05-03T19:36:50.994Z,9.10
2023-05-03T19:39:20.540Z,8.10
2023-05-03T19:41:53.009Z,7.28
2023-05-03T19:44:22.659Z,7.88
2023-05-03T19:46:56.111Z,7.57
2023-05-03T19:49:25.883Z,12.57
2023-05-03T19:51:56.005Z,12.82
2023-05-03T19:54:26.275Z,11.50
2023-05-03T19:56:56.580Z,11.10
2023-05-03T19:59:29.491Z,11.50
2023-05-03T20:02:00.776Z,9.23
2023-05-03T20:04:30.542Z,10.07
2023-05-03T20:06:59.862Z,17.70
2023-05-03T20:09:29.352Z,15.65
2023-05-03T20:11:59.871Z,10.98
2023-05-03T20:14:30.735Z,10.45
2023-05-03T20:17:02.192Z,8.48
2023-05-03T20:19:31.604Z,8.73
2023-05-03T20:22:01.079Z,7.47
2023-05-03T20:24:30.601Z,7.53
2023-05-03T20:26:59.982Z,7.32
2023-05-03T20:29:29.799Z,7.25
2023-05-03T20:32:00.708Z,8.98
2023-05-03T20:34:30.455Z,8.18
2023-05-03T20:37:00.183Z,7.65
2023-05-03T20:39:30.004Z,9.02
2023-05-03T20:41:59.455Z,7.13
2023-05-03T20:44:29.101Z,7.45
2023-05-03T20:46:58.179Z,7.72
2023-05-03T20:49:30.123Z,7.18
2023-05-03T20:51:59.422Z,7.32
2023-05-03T20:54:28.857Z,7.60
2023-05-03T20:56:58.332Z,8.07
2023-05-03T20:59:29.181Z,8.15
2023-05-03T21:01:58.903Z,8.40
2023-05-03T21:04:29.930Z,6.40
2023-05-03T21:06:59.210Z,6.45
2023-05-03T21:09:28.968Z,6.38
2023-05-03T21:11:58.627Z,6.63
2023-05-03T21:14:28.955Z,8.25
2023-05-03T21:16:58.261Z,8.63
2023-05-03T21:19:29.119Z,8.10
2023-05-03T21:21:58.518Z,8.07
2023-05-03T21:24:29.362Z,7.78
2023-05-03T21:26:58.885Z,6.28
2023-05-03T21:29:28.524Z,7.70
2023-05-03T21:31:57.836Z,7.20
2023-05-03T21:34:28.820Z,7.50
2023-05-03T21:36:58.252Z,8.05
2023-05-03T21:39:27.940Z,7.80
2023-05-03T21:41:57.321Z,8.40
2023-05-03T21:44:26.815Z,7.35
2023-05-03T21:46:56.576Z,8.05
2023-05-03T21:49:26.351Z,7.38
2023-05-03T21:51:57.065Z,7.97
2023-05-03T21:54:27.602Z,8.50
2023-05-03T21:56:58.032Z,7.78
2023-05-03T21:59:27.618Z,6.90
2023-05-03T22:01:56.959Z,7.40
2023-05-03T22:04:26.726Z,6.88
2023-05-03T22:06:57.581Z,7.63
2023-05-03T22:09:27.176Z,7.90
2023-05-03T22:11:56.311Z,7.88
2023-05-03T22:14:25.914Z,8.38
2023-05-03T22:16:55.093Z,7.15
2023-05-03T22:19:24.706Z,8.27
2023-05-03T22:21:53.893Z,8.15
2023-05-03T22:24:26.710Z,9.32
2023-05-03T22:26:55.960Z,9.55
2023-05-03T22:29:25.686Z,11.00
2023-05-03T22:31:54.913Z,10.88
2023-05-03T22:34:24.505Z,10.60
2023-05-03T22:36:53.703Z,10.27
2023-05-03T22:39:24.570Z,9.90
2023-05-03T22:41:53.817Z,10.18
2023-05-03T22:44:23.390Z,10.75
2023-05-03T22:46:52.578Z,10.98
2023-05-03T22:49:22.147Z,10.63
2023-05-03T22:51:51.837Z,10.68
2023-05-03T22:54:21.977Z,9.40
2023-05-03T22:56:54.732Z,9.48
2023-05-03T22:59:24.125Z,9.27
2023-05-03T23:01:53.486Z,10.65
2023-05-03T23:04:22.905Z,8.00
2023-05-03T23:06:53.528Z,9.40
2023-05-03T23:09:22.959Z,8.75
2023-05-03T23:11:53.607Z,9.25
2023-05-03T23:14:22.963Z,9.82
2023-05-03T23:16:52.300Z,7.28
2023-05-03T23:19:21.909Z,8.82
2023-05-03T23:21:51.212Z,8.77
2023-05-03T23:24:20.808Z,7.68
2023-05-03T23:26:49.985Z,8.40
2023-05-03T23:29:21.367Z,8.65
2023-05-03T23:31:50.930Z,8.45
2023-05-03T23:34:20.844Z,9.20
2023-05-03T23:36:50.028Z,8.15
2023-05-03T23:39:19.375Z,7.72
2023-05-03T23:41:48.498Z,8.02
2023-05-03T23:44:17.957Z,8.35
2023-05-03T23:46:48.848Z,7.80
2023-05-03T23:49:19.771Z,7.13
2023-05-03T23:51:48.992Z,7.57
2023-05-03T23:54:18.418Z,7.57
2023-05-03T23:56:47.646Z,7.00
2023-05-03T23:59:17.090Z,8.10
